Saint-Sauveur, Quebec

11:32 PM EDT on April 30, 2017 (GMT -0400)
Saint-Sauveur | | Change Station

Elev 920 ft 45.88 °N, 74.19 °W | Updated 50 seconds ago

Rain
Rain
36.9 °F
Feels Like 37 °F
N
3.0
Wind Variable Wind from ESE

Today
High -- | Low -- °F
--% Chance of Precip.
Yesterday
High -- | Low -- °F
Precip. -- in
Pressure 30.11 in
Visibility 25.0 miles
Clouds Overcast 3900 ft
Windchill 37 °F
Dew Point 35 °F
Humidity 93%
Rainfall 0.15 in
Snow Depth Not available.
5:45 AM 8:03 PM
Waxing Crescent, 28% visible
METAR CYMX 010300Z 05005KT 020V100 25SM -RA OVC039 04/03 A3009 RMK SC8 SLP195
Pressure 30.11 in
Visibility 25.0 miles
Clouds Overcast 3900 ft
Windchill 37 °F
Dew Point 35 °F
Humidity 93%
Rainfall 0.15 in
Snow Depth Not available.
5:45 AM 8:03 PM
Waxing Crescent, 28% visible
METAR CYMX 010300Z 05005KT 020V100 25SM -RA OVC039 04/03 A3009 RMK SC8 SLP195

Get Severe Weather Alerts

Thanks for signing up!

Be on the lookout for a verification email in your inbox.

You'll start receiving the daily forecast at 8 AM.

×

10-Day Weather Forecast

Almanac

Astronomy

Apr. 30, 2017 Rise Set
Actual Time
Civil Twilight
Nautical Twilight
Astronomical Twilight
Moon
Length of Visible Light
Length of Day
Tomorrow will be .
, % of the Moon is Illuminated

Today's Extremes

Country Highs Country Lows

Community

WunderPhotos

WunderBlog® & News

Nearby

Air Quality

  Air Quality AQ Index Pollutant
Not available.

Snow Depth

Station Depth Elevation

Earthquake Activity

City Distance Mag. Time & Date
Minimum magnitude displayed is 2.5.

Coastal Water Temperatures

Place Temperature

Stations

Nearby Weather Stations

Station Location Temp. Windchill Dew Point Humidity Wind Precip. Elev Updated Type
                   

Watches & Warnings

There are currently no watches in effect.